Time;durP1;ratioP1;P1;durP2;ratioP2;P2;SDS_P1;SDS_P2;PMS_P1;PMS_P2;Temp;Humidity;BMP_temperature;BMP_pressure;BME280_temperature;BME280_humidity;BME280_pressure;Samples;Min_cycle;Max_cycle;Signal;HPM_P1;HPM_P2
2021/06/29 00:02:06;;;;;;;29.30;23.48;;;20.30;99.90;;;;;;4358211;27;21564467;-81
2021/06/29 00:04:41;;;;;;;24.08;21.52;;;20.30;99.90;;;;;;4471195;27;18815851;-81
2021/06/29 00:07:45;;;;;;;20.35;18.25;;;20.30;99.90;;;;;;5123051;27;20903;-81
2021/06/29 00:10:39;;;;;;;21.85;19.40;;;20.30;99.90;;;;;;5186568;27;20399;-81
2021/06/29 00:13:15;;;;;;;20.13;18.08;;;20.20;99.90;;;;;;4472174;27;18537836;-80
2021/06/29 00:16:11;;;;;;;21.85;19.52;;;20.30;99.90;;;;;;5186495;27;20403;-81
2021/06/29 00:19:05;;;;;;;21.48;19.17;;;20.20;99.90;;;;;;5109104;27;20418;-81
2021/06/29 00:22:02;;;;;;;25.10;21.27;;;20.20;99.90;;;;;;5107658;27;20418;-81
2021/06/29 00:24:57;;;;;;;22.85;19.98;;;20.10;99.90;;;;;;5186188;27;20411;-80
2021/06/29 00:28:00;;;;;;;23.65;20.40;;;20.10;99.90;;;;;;5120643;27;20492;-80
2021/06/29 00:30:59;;;;;;;22.58;20.05;;;20.10;99.90;;;;;;5136245;27;20440;-80
2021/06/29 00:33:37;;;;;;;23.15;18.27;;;20.10;99.90;;;;;;4504289;27;18553659;-80
2021/06/29 00:36:31;;;;;;;22.13;19.65;;;20.10;99.90;;;;;;5184026;27;20916;-80
2021/06/29 00:39:26;;;;;;;24.98;20.52;;;20.10;99.90;;;;;;5142863;27;20257;-80
2021/06/29 00:42:20;;;;;;;21.38;17.98;;;20.20;99.90;;;;;;5114438;27;20422;-80
2021/06/29 00:45:15;;;;;;;21.05;17.25;;;20.20;99.90;;;;;;5184557;27;20402;-80
2021/06/29 00:47:50;;;;;;;26.70;24.00;;;20.20;99.90;;;;;;4374061;27;20916391;-80
2021/06/29 00:50:45;;;;;;;22.52;19.00;;;20.20;99.90;;;;;;5185181;27;20780;-80
2021/06/29 00:53:50;;;;;;;21.25;18.25;;;20.20;99.90;;;;;;5119649;27;20454;-80
2021/06/29 00:56:52;;;;;;;20.30;17.73;;;20.30;99.90;;;;;;5120473;27;20430;-80
2021/06/29 00:59:47;;;;;;;21.73;18.65;;;20.30;99.90;;;;;;5143538;27;20418;-80
2021/06/29 01:02:45;;;;;;;21.23;18.25;;;20.30;99.90;;;;;;5100446;27;20138;-80
2021/06/29 01:05:36;;;;;;;19.83;17.38;;;20.30;99.90;;;;;;5103992;27;20426;-81
2021/06/29 01:08:31;;;;;;;20.80;18.00;;;20.30;99.90;;;;;;5183859;27;20486;-80
2021/06/29 01:11:26;;;;;;;18.10;15.70;;;20.20;99.90;;;;;;5185893;27;20439;-80
2021/06/29 01:14:21;;;;;;;20.63;17.60;;;20.30;99.90;;;;;;5143693;27;20110;-80
2021/06/29 01:17:31;;;;;;;19.00;16.48;;;20.20;99.90;;;;;;5138871;27;20434;-80
2021/06/29 01:20:32;;;;;;;17.40;15.57;;;20.20;99.90;;;;;;5116057;27;20446;-80
2021/06/29 01:23:26;;;;;;;22.23;16.50;;;20.10;99.90;;;;;;5116584;27;20424;-80
2021/06/29 01:26:23;;;;;;;22.83;17.38;;;20.20;99.90;;;;;;5186007;27;20414;-80
2021/06/29 01:29:03;;;;;;;17.83;15.93;;;20.10;99.90;;;;;;4578836;27;15071557;-80
2021/06/29 01:31:57;;;;;;;18.88;16.02;;;20.10;99.90;;;;;;5186240;27;20403;-80
2021/06/29 01:34:47;;;;;;;16.30;14.45;;;20.10;99.90;;;;;;5117860;27;21301;-80
2021/06/29 01:37:43;;;;;;;20.85;18.45;;;20.10;99.90;;;;;;5142943;27;20398;-80
2021/06/29 01:40:26;;;;;;;19.23;15.32;;;20.10;99.90;;;;;;4512776;27;18806637;-80
2021/06/29 01:43:25;;;;;;;23.73;17.42;;;20.00;99.90;;;;;;5185596;27;20440;-80
2021/06/29 01:46:22;;;;;;;23.10;17.25;;;20.10;99.90;;;;;;5186068;27;20488;-80
2021/06/29 01:49:26;;;;;;;24.95;19.88;;;20.00;99.90;;;;;;5184160;27;20395;-80
2021/06/29 01:52:21;;;;;;;26.30;18.48;;;20.00;99.90;;;;;;5182932;27;20422;-80
2021/06/29 01:55:13;;;;;;;28.90;18.98;;;20.00;99.90;;;;;;5103928;27;20493;-80
2021/06/29 01:58:19;;;;;;;31.13;20.42;;;20.00;99.90;;;;;;5136322;27;20449;-80
2021/06/29 02:01:19;;;;;;;23.92;18.63;;;20.00;99.90;;;;;;5137059;27;20459;-80
2021/06/29 02:04:24;;;;;;;28.23;19.80;;;20.00;99.90;;;;;;5104503;27;20413;-80
2021/06/29 02:06:59;;;;;;;27.30;19.77;;;20.00;99.90;;;;;;4484781;27;18726881;-80
2021/06/29 02:09:55;;;;;;;25.25;18.50;;;20.00;99.90;;;;;;5111533;27;20446;-80
2021/06/29 02:12:31;;;;;;;26.25;20.52;;;20.00;99.90;;;;;;4486565;27;18719584;-80
2021/06/29 02:15:34;;;;;;;26.50;21.10;;;20.00;99.90;;;;;;5119841;27;20417;-80
2021/06/29 02:18:29;;;;;;;27.20;20.55;;;19.90;99.90;;;;;;5183534;27;20406;-80
2021/06/29 02:21:24;;;;;;;27.42;21.88;;;19.90;99.90;;;;;;5142969;27;20526;-79
2021/06/29 02:24:19;;;;;;;25.98;20.80;;;19.90;99.90;;;;;;5185848;27;20404;-80
2021/06/29 02:27:25;;;;;;;24.73;20.95;;;19.80;99.90;;;;;;5140613;27;20446;-80
2021/06/29 02:30:17;;;;;;;19.83;17.80;;;19.80;99.90;;;;;;5118861;27;20749;-80
2021/06/29 02:33:12;;;;;;;22.17;19.55;;;19.70;99.90;;;;;;5144615;27;20343;-81
2021/06/29 02:36:07;;;;;;;29.65;20.95;;;19.70;99.90;;;;;;5186260;27;21081;-82
2021/06/29 02:39:01;;;;;;;24.35;21.00;;;19.70;99.90;;;;;;5184880;27;20426;-82
2021/06/29 02:41:36;;;;;;;27.95;19.83;;;19.60;99.90;;;;;;4124602;27;27764544;-80
2021/06/29 02:44:33;;;;;;;26.67;19.48;;;19.60;99.90;;;;;;5186437;27;20908;-83
2021/06/29 02:47:39;;;;;;;24.02;18.67;;;19.60;99.90;;;;;;5140665;27;20543;-83
2021/06/29 02:50:32;;;;;;;31.33;20.17;;;19.60;99.90;;;;;;5112552;27;20880;-83
2021/06/29 02:53:27;;;;;;;23.00;18.73;;;19.60;99.90;;;;;;5186246;27;20486;-83
2021/06/29 02:56:37;;;;;;;27.20;20.35;;;19.50;99.90;;;;;;5186736;27;20399;-83
2021/06/29 02:59:15;;;;;;;26.85;18.95;;;19.50;99.90;;;;;;4495314;27;18671529;-83
2021/06/29 03:02:06;;;;;;;24.38;18.05;;;19.40;99.90;;;;;;5113753;27;20901;-86
2021/06/29 03:04:42;;;;;;;23.95;21.45;;;19.40;99.90;;;;;;4434434;27;19552990;-83
2021/06/29 03:07:52;;;;;;;23.98;20.35;;;19.40;99.90;;;;;;5138129;27;20776;-82
2021/06/29 03:10:46;;;;;;;24.83;20.80;;;19.40;99.90;;;;;;5179421;27;20485;-82
2021/06/29 03:13:22;;;;;;;33.42;27.40;;;19.40;99.90;;;;;;4243050;27;24594372;-83
2021/06/29 03:16:17;;;;;;;30.55;27.02;;;19.40;99.90;;;;;;5186416;27;20395;-84
2021/06/29 03:19:07;;;;;;;26.15;20.20;;;19.40;99.90;;;;;;5112427;27;20439;-84
2021/06/29 03:22:18;;;;;;;24.50;17.98;;;19.40;99.90;;;;;;5119722;27;20127;-85
2021/06/29 03:25:09;;;;;;;21.75;18.00;;;19.40;99.90;;;;;;5114466;27;20450;-86
2021/06/29 03:28:16;;;;;;;21.88;19.52;;;19.40;99.90;;;;;;5119888;27;20397;-87
2021/06/29 03:31:16;;;;;;;21.83;19.42;;;19.40;99.90;;;;;;5118946;27;20192;-86
2021/06/29 03:34:12;;;;;;;16.63;14.95;;;19.40;99.90;;;;;;5144860;27;20179;-86
2021/06/29 03:36:48;;;;;;;23.35;20.92;;;19.40;99.90;;;;;;3924031;27;33463855;-84
2021/06/29 03:39:43;;;;;;;23.30;20.88;;;19.50;99.90;;;;;;5114392;27;20024;-85
2021/06/29 03:42:38;;;;;;;22.13;19.73;;;19.50;99.90;;;;;;5145256;27;20233;-85
2021/06/29 03:45:33;;;;;;;23.85;21.27;;;19.50;99.90;;;;;;5110478;27;20422;-84
2021/06/29 03:48:28;;;;;;;23.20;20.73;;;19.50;99.90;;;;;;5184966;27;20399;-84
2021/06/29 03:51:21;;;;;;;22.73;20.13;;;19.60;99.90;;;;;;5186514;27;20411;-85
2021/06/29 03:54:17;;;;;;;22.27;20.00;;;19.60;99.90;;;;;;5145314;27;20379;-84
2021/06/29 03:57:08;;;;;;;21.63;19.35;;;19.60;99.90;;;;;;5113680;27;20422;-84
2021/06/29 04:00:08;;;;;;;23.25;20.70;;;19.70;99.90;;;;;;5142129;27;20399;-84
2021/06/29 04:03:02;;;;;;;28.85;25.75;;;19.70;99.90;;;;;;5184125;27;21481;-85
2021/06/29 04:06:25;;;;;;;23.73;21.23;;;19.80;99.90;;;;;;5187158;27;20406;-83
2021/06/29 04:09:20;;;;;;;23.63;21.08;;;19.80;99.90;;;;;;5185069;27;20399;-84
2021/06/29 04:12:28;;;;;;;23.48;20.75;;;19.90;99.90;;;;;;5142531;27;20398;-85
2021/06/29 04:15:21;;;;;;;22.98;19.83;;;19.90;99.90;;;;;;5112439;27;20601;-84
2021/06/29 04:18:13;;;;;;;26.10;22.25;;;19.90;99.90;;;;;;5112982;27;20410;-84
2021/06/29 04:21:23;;;;;;;28.40;23.35;;;20.00;99.90;;;;;;5115639;27;20165;-84
2021/06/29 04:24:17;;;;;;;23.98;21.17;;;20.00;99.90;;;;;;5184193;27;20414;-84
2021/06/29 04:27:13;;;;;;;26.92;21.27;;;20.10;99.90;;;;;;5144143;27;20194;-84
2021/06/29 04:29:50;;;;;;;26.38;21.38;;;20.10;99.90;;;;;;4516554;27;18690964;-84
2021/06/29 04:32:56;;;;;;;26.98;21.73;;;20.00;99.90;;;;;;5142443;27;20409;-83
2021/06/29 04:35:46;;;;;;;25.80;22.40;;;20.10;99.90;;;;;;5113602;27;20407;-83
2021/06/29 04:38:42;;;;;;;24.10;21.60;;;20.10;99.90;;;;;;5140037;27;20363;-83
2021/06/29 04:41:37;;;;;;;28.50;22.92;;;20.20;99.90;;;;;;5185634;27;20411;-84
2021/06/29 04:44:35;;;;;;;23.92;19.88;;;20.20;99.90;;;;;;5143528;27;20347;-79
2021/06/29 04:47:36;;;;;;;26.50;21.67;;;20.20;99.90;;;;;;5185198;27;20395;-79
2021/06/29 04:50:30;;;;;;;26.05;21.45;;;20.30;99.90;;;;;;5183770;27;20737;-79
2021/06/29 04:53:25;;;;;;;30.50;23.10;;;20.40;99.90;;;;;;5181180;27;20949;-79
2021/06/29 04:56:21;;;;;;;29.30;22.75;;;20.40;99.90;;;;;;5086492;28;20363;-79
2021/06/29 04:58:58;;;;;;;28.15;23.17;;;20.40;99.90;;;;;;4218748;27;24726169;-79
2021/06/29 05:01:58;;;;;;;25.05;21.02;;;20.40;99.90;;;;;;5135534;27;20834;-79
2021/06/29 05:04:58;;;;;;;26.88;22.23;;;20.50;99.90;;;;;;5164617;27;20416;-79
2021/06/29 05:07:54;;;;;;;26.95;20.55;;;20.60;99.90;;;;;;5142917;27;20495;-82
2021/06/29 05:10:50;;;;;;;28.65;21.40;;;20.60;99.90;;;;;;5186085;27;20411;-79
2021/06/29 05:13:25;;;;;;;23.77;19.63;;;20.60;99.90;;;;;;4593084;27;15065776;-79
2021/06/29 05:16:21;;;;;;;27.83;21.92;;;20.70;99.90;;;;;;5182307;27;20493;-77
2021/06/29 05:19:16;;;;;;;26.50;21.42;;;20.70;99.90;;;;;;5138362;27;20272;-77
2021/06/29 05:22:13;;;;;;;27.67;21.42;;;20.70;99.90;;;;;;5110286;27;20419;-79
2021/06/29 05:24:49;;;;;;;24.92;21.85;;;20.70;99.90;;;;;;4516411;27;18705337;-80
2021/06/29 05:27:26;;;;;;;22.45;19.67;;;20.80;99.90;;;;;;4492353;27;18828756;-80
2021/06/29 05:30:03;;;;;;;23.27;20.35;;;20.80;99.90;;;;;;4248238;27;23902618;-80
2021/06/29 05:33:00;;;;;;;23.30;20.80;;;20.90;99.90;;;;;;5111042;27;20556;-79
2021/06/29 05:35:55;;;;;;;21.13;19.02;;;20.90;99.90;;;;;;5184491;27;20777;-79
2021/06/29 05:38:50;;;;;;;21.45;19.15;;;21.00;99.90;;;;;;5140833;27;20143;-79
2021/06/29 05:41:45;;;;;;;19.50;17.60;;;21.00;99.90;;;;;;5185165;27;20442;-80
2021/06/29 05:44:40;;;;;;;20.92;18.77;;;21.00;99.90;;;;;;5142699;27;20340;-80
2021/06/29 05:47:43;;;;;;;20.95;18.73;;;21.10;99.90;;;;;;5117072;27;20422;-80
2021/06/29 05:50:37;;;;;;;19.85;17.95;;;21.20;99.90;;;;;;5112114;27;20415;-79
2021/06/29 05:53:14;;;;;;;19.70;16.95;;;21.10;99.90;;;;;;4160528;27;27121575;-80
2021/06/29 05:56:14;;;;;;;20.95;18.77;;;21.10;99.90;;;;;;5136240;27;20456;-82
2021/06/29 05:58:50;;;;;;;20.33;18.25;;;21.10;99.90;;;;;;4485001;27;18679417;-79
2021/06/29 06:01:45;;;;;;;21.02;18.65;;;21.20;99.90;;;;;;5185064;27;20466;-79
2021/06/29 06:04:36;;;;;;;20.35;18.23;;;21.20;99.90;;;;;;5101056;27;20415;-79
2021/06/29 06:07:31;;;;;;;21.33;19.15;;;21.20;99.90;;;;;;5142172;27;20552;-79
2021/06/29 06:10:29;;;;;;;21.08;18.98;;;21.20;99.90;;;;;;5111366;27;20413;-79
2021/06/29 06:13:24;;;;;;;22.15;19.85;;;21.20;99.90;;;;;;5183315;27;20487;-78
2021/06/29 06:16:20;;;;;;;22.90;20.45;;;21.30;99.90;;;;;;5116483;27;20448;-79
2021/06/29 06:19:15;;;;;;;21.75;19.65;;;21.40;99.90;;;;;;5180506;27;20478;-78
2021/06/29 06:21:51;;;;;;;21.77;19.50;;;21.60;99.90;;;;;;4031445;27;30909079;-78
2021/06/29 06:24:46;;;;;;;21.90;19.63;;;21.70;99.90;;;;;;5181117;27;21284;-79
2021/06/29 06:27:44;;;;;;;22.58;20.20;;;21.90;99.90;;;;;;5177491;27;20979;-79
2021/06/29 06:30:20;;;;;;;22.23;20.08;;;22.10;99.90;;;;;;4442865;27;19678727;-79
2021/06/29 06:32:56;;;;;;;22.42;20.00;;;22.30;99.90;;;;;;4495190;27;18767308;-80
2021/06/29 06:35:50;;;;;;;21.58;19.38;;;22.40;99.90;;;;;;5115176;27;21145;-79
2021/06/29 06:38:46;;;;;;;22.77;20.48;;;22.60;99.90;;;;;;5176076;27;20410;-78
2021/06/29 06:41:40;;;;;;;19.30;17.40;;;22.70;99.90;;;;;;5110930;27;20630;-79
2021/06/29 06:44:35;;;;;;;21.98;19.73;;;22.70;99.90;;;;;;5184371;27;20402;-79
2021/06/29 06:47:30;;;;;;;25.77;22.75;;;22.90;99.90;;;;;;5140901;27;20119;-79
2021/06/29 06:50:40;;;;;;;23.73;21.23;;;23.00;99.90;;;;;;5139311;27;21077;-78
2021/06/29 06:53:34;;;;;;;23.05;20.67;;;23.00;99.90;;;;;;5184384;27;20816;-79
2021/06/29 06:56:15;;;;;;;26.38;23.65;;;22.90;99.90;;;;;;4374745;27;21652777;-79
2021/06/29 06:58:53;;;;;;;24.40;21.63;;;22.80;99.90;;;;;;4510120;27;18796079;-79
2021/06/29 07:01:59;;;;;;;25.25;22.75;;;22.60;99.90;;;;;;5139716;27;20821;-79
2021/06/29 07:04:36;;;;;;;26.73;22.70;;;22.50;99.90;;;;;;4470388;27;18702449;-79
2021/06/29 07:07:30;;;;;;;24.67;21.95;;;22.50;99.90;;;;;;5178567;27;20462;-79
2021/06/29 07:10:07;;;;;;;23.77;21.20;;;22.60;99.90;;;;;;4513419;27;18652998;-79
2021/06/29 07:12:42;;;;;;;23.75;20.65;;;22.50;99.90;;;;;;4491006;27;18595714;-77
2021/06/29 07:15:49;;;;;;;23.85;21.13;;;22.50;99.90;;;;;;5136682;27;20406;-79
2021/06/29 07:18:50;;;;;;;28.30;25.23;;;22.50;99.90;;;;;;5130556;27;20879;-79
2021/06/29 07:21:31;;;;;;;26.17;21.98;;;22.40;99.90;;;;;;5071253;28;20402;-79
2021/06/29 07:24:09;;;;;;;24.77;22.27;;;22.30;99.90;;;;;;5142637;27;20315;-79
2021/06/29 07:26:46;;;;;;;27.50;23.02;;;22.20;99.90;;;;;;5149146;27;20572;-79
2021/06/29 07:29:24;;;;;;;25.13;22.38;;;22.10;99.90;;;;;;5108373;27;20390;-78
2021/06/29 07:32:01;;;;;;;28.70;23.98;;;22.00;99.90;;;;;;5116620;27;1358996;-78
2021/06/29 07:34:38;;;;;;;24.15;20.92;;;22.00;99.90;;;;;;5066593;28;20394;-77
2021/06/29 07:37:14;;;;;;;31.75;28.48;;;22.00;99.90;;;;;;5099610;27;1280797;-79
2021/06/29 07:39:52;;;;;;;28.65;25.55;;;22.10;99.90;;;;;;5064141;28;20495;-79
2021/06/29 07:42:27;;;;;;;31.00;27.90;;;22.10;99.90;;;;;;5119041;27;1258352;-79
2021/06/29 07:45:06;;;;;;;30.63;26.70;;;22.30;99.90;;;;;;5072087;28;20530;-77
2021/06/29 07:47:44;;;;;;;26.48;23.70;;;22.50;99.90;;;;;;5104136;27;20569;-79
2021/06/29 07:50:22;;;;;;;25.42;22.73;;;22.70;99.90;;;;;;5081180;28;20390;-79
2021/06/29 07:53:03;;;;;;;22.45;20.00;;;22.90;99.90;;;;;;5096653;27;20389;-77
2021/06/29 07:55:43;;;;;;;29.45;24.83;;;23.20;99.90;;;;;;5069003;28;20431;-76
2021/06/29 07:58:21;;;;;;;24.88;22.27;;;23.40;99.90;;;;;;5064133;28;20484;-76
2021/06/29 08:00:56;;;;;;;27.52;24.98;;;23.60;99.90;;;;;;5083045;27;1290389;-76
2021/06/29 08:03:34;;;;;;;23.65;21.25;;;23.60;99.90;;;;;;5089871;27;20389;-76
2021/06/29 08:06:11;;;;;;;22.33;20.15;;;23.40;99.90;;;;;;5064082;28;20208;-76
2021/06/29 08:08:47;;;;;;;22.70;19.88;;;23.20;99.90;;;;;;5098862;27;20175;-78
2021/06/29 08:11:24;;;;;;;23.52;19.70;;;23.00;99.90;;;;;;5098578;28;20218;-78
2021/06/29 08:14:01;;;;;;;22.20;19.90;;;22.80;99.90;;;;;;5039994;27;20186;-79
2021/06/29 08:16:39;;;;;;;22.08;19.77;;;22.70;99.90;;;;;;5112704;27;21119;-79
2021/06/29 08:19:16;;;;;;;21.25;19.00;;;22.50;99.90;;;;;;5099553;27;20222;-78
2021/06/29 08:21:54;;;;;;;19.92;17.95;;;22.30;99.90;;;;;;5088008;27;20543;-79
2021/06/29 08:24:32;;;;;;;21.50;19.23;;;22.30;99.90;;;;;;5068408;28;21366;-78
2021/06/29 08:27:10;;;;;;;20.25;18.23;;;22.40;99.90;;;;;;5142504;27;20401;-76
2021/06/29 08:29:47;;;;;;;19.65;17.65;;;22.60;99.90;;;;;;5128219;27;20193;-78
2021/06/29 08:32:25;;;;;;;20.38;17.58;;;22.70;99.90;;;;;;5113714;27;20565;-79
2021/06/29 08:35:01;;;;;;;20.83;18.30;;;22.80;99.90;;;;;;5089062;27;1327137;-77
2021/06/29 08:37:41;;;;;;;20.40;18.30;;;22.90;99.90;;;;;;5100907;27;20465;-77
2021/06/29 08:40:18;;;;;;;20.23;18.10;;;22.80;99.90;;;;;;5108206;27;20542;-79
2021/06/29 08:42:54;;;;;;;21.17;19.05;;;22.70;99.90;;;;;;5123224;27;1277479;-76
2021/06/29 08:45:33;;;;;;;22.90;20.70;;;22.60;99.90;;;;;;5072302;28;20393;-76
2021/06/29 08:48:22;;;;;;;21.42;19.27;;;22.50;99.90;;;;;;5087068;28;20447;-78
2021/06/29 08:51:05;;;;;;;21.10;18.88;;;22.40;99.90;;;;;;5062061;28;20208;-78
2021/06/29 08:53:42;;;;;;;18.92;16.42;;;22.30;99.90;;;;;;5096530;27;20800;-78
2021/06/29 08:56:17;;;;;;;20.23;18.02;;;22.20;99.90;;;;;;5081140;27;1343561;-77
2021/06/29 08:58:52;;;;;;;21.02;18.83;;;22.20;99.90;;;;;;5098201;27;1253366;-79
2021/06/29 09:01:30;;;;;;;20.35;18.38;;;22.10;99.90;;;;;;5068101;28;20444;-78
2021/06/29 09:04:08;;;;;;;20.63;18.52;;;22.10;99.90;;;;;;5100536;27;20421;-79
2021/06/29 09:06:45;;;;;;;25.33;22.55;;;22.00;99.90;;;;;;5105789;27;20137;-79
2021/06/29 09:09:27;;;;;;;25.75;22.10;;;21.90;99.90;;;;;;5052332;28;20470;-78
2021/06/29 09:12:05;;;;;;;31.88;28.48;;;21.80;99.90;;;;;;5112945;27;20528;-78
2021/06/29 09:14:43;;;;;;;29.08;26.00;;;21.70;99.90;;;;;;5069714;28;20467;-78
2021/06/29 09:17:22;;;;;;;28.27;23.77;;;21.50;99.90;;;;;;5069939;28;20287;-78
2021/06/29 09:20:00;;;;;;;31.05;27.38;;;21.30;99.90;;;;;;5116213;27;1303897;-76
2021/06/29 09:22:38;;;;;;;32.63;29.23;;;21.10;99.90;;;;;;5152473;27;20145;-78
2021/06/29 09:25:30;;;;;;;27.33;23.65;;;20.90;99.90;;;;;;5067123;28;20399;-78
2021/06/29 09:28:06;;;;;;;29.52;25.88;;;20.80;99.90;;;;;;5070625;27;1278791;-78
2021/06/29 09:30:58;;;;;;;32.45;29.05;;;20.80;99.90;;;;;;5069130;27;20429;-78
2021/06/29 09:33:52;;;;;;;30.30;27.10;;;20.70;99.90;;;;;;5119295;27;1273261;-78
2021/06/29 09:36:38;;;;;;;26.42;23.00;;;20.70;99.90;;;;;;5069301;28;20423;-78
2021/06/29 09:39:19;;;;;;;26.90;23.20;;;20.70;99.90;;;;;;5059651;27;1274554;-77
2021/06/29 09:42:03;;;;;;;30.17;26.80;;;20.90;99.90;;;;;;5050563;28;20889;-78
2021/06/29 09:44:39;;;;;;;34.58;30.92;;;21.00;99.90;;;;;;5095679;27;1414976;-78
2021/06/29 09:47:29;;;;;;;29.77;26.30;;;21.30;99.90;;;;;;5120154;27;1280225;-79
2021/06/29 09:50:54;;;;;;;32.53;28.08;;;21.50;99.90;;;;;;5063615;28;20476;-80
2021/06/29 09:53:32;;;;;;;26.70;23.83;;;21.80;99.90;;;;;;5117775;27;1289870;-77
2021/06/29 09:56:15;;;;;;;32.03;28.60;;;22.20;99.90;;;;;;5068008;28;20493;-76
2021/06/29 09:58:58;;;;;;;29.48;26.30;;;22.50;99.90;;;;;;5104680;27;20431;-76
2021/06/29 10:01:35;;;;;;;27.95;25.10;;;22.60;99.90;;;;;;5111699;27;20786;-76
2021/06/29 10:04:12;;;;;;;30.20;26.90;;;22.80;99.90;;;;;;5069480;28;20236;-76
2021/06/29 10:06:51;;;;;;;27.25;24.40;;;23.10;99.90;;;;;;5077033;27;20389;-76
2021/06/29 10:09:30;;;;;;;26.30;23.52;;;23.30;99.90;;;;;;5090319;27;20163;-77
2021/06/29 10:12:07;;;;;;;25.95;23.40;;;23.50;99.90;;;;;;5106445;27;20423;-76
2021/06/29 10:14:46;;;;;;;25.88;23.23;;;23.70;99.90;;;;;;5086696;27;21588;-74
2021/06/29 10:17:23;;;;;;;27.20;24.25;;;23.80;99.90;;;;;;5066552;28;21075;-79
2021/06/29 10:23:07;;;;;;;24.42;21.90;;;23.90;99.90;;;;;;5071467;28;20219;-78
2021/06/29 10:25:45;;;;;;;23.05;20.75;;;23.80;99.90;;;;;;5132951;27;20394;-77
2021/06/29 10:28:20;;;;;;;30.35;27.55;;;23.80;99.90;;;;;;5094190;27;1331163;-76
2021/06/29 10:30:58;;;;;;;23.52;21.30;;;23.90;99.50;;;;;;5090803;27;20469;-77
2021/06/29 10:33:35;;;;;;;23.10;20.83;;;23.80;99.40;;;;;;5066031;28;20209;-80
2021/06/29 10:36:13;;;;;;;21.35;19.35;;;23.80;99.40;;;;;;5072683;27;20418;-76
2021/06/29 10:38:52;;;;;;;20.17;18.30;;;23.80;99.60;;;;;;5123057;27;1297232;-77
2021/06/29 10:41:35;;;;;;;22.02;19.92;;;23.80;99.60;;;;;;5055439;28;20433;-74
2021/06/29 10:44:14;;;;;;;22.40;20.30;;;23.90;99.30;;;;;;5065949;28;20445;-76
2021/06/29 10:46:55;;;;;;;18.05;16.23;;;24.00;98.80;;;;;;5078904;28;20417;-79
2021/06/29 10:49:39;;;;;;;21.65;19.65;;;24.30;98.80;;;;;;5127899;27;20978;-79
2021/06/29 10:52:23;;;;;;;21.30;19.30;;;24.70;98.10;;;;;;5103902;27;20431;-78
2021/06/29 10:55:03;;;;;;;19.95;18.15;;;25.00;97.70;;;;;;5095863;27;20420;-79
2021/06/29 10:57:43;;;;;;;17.98;16.30;;;25.00;97.30;;;;;;5097152;27;20427;-79
2021/06/29 11:00:21;;;;;;;19.20;17.42;;;24.80;97.40;;;;;;5083985;27;20467;-76
2021/06/29 11:03:01;;;;;;;20.52;18.65;;;24.60;97.20;;;;;;5117697;27;1288551;-78
2021/06/29 11:05:44;;;;;;;20.63;18.70;;;24.20;97.30;;;;;;5064006;27;20415;-80
2021/06/29 11:08:27;;;;;;;19.75;17.98;;;24.10;97.80;;;;;;5102912;27;20864;-79
2021/06/29 11:11:09;;;;;;;19.17;17.38;;;23.90;98.00;;;;;;5105790;27;20428;-79
2021/06/29 11:13:47;;;;;;;18.92;17.08;;;23.90;98.00;;;;;;5103675;27;20452;-79
2021/06/29 11:16:58;;;;;;;18.42;16.83;;;23.80;97.90;;;;;;5086567;27;1296333;-79
2021/06/29 11:20:15;;;;;;;18.05;16.23;;;23.70;97.90;;;;;;5041058;28;20442;-79
2021/06/29 11:22:59;;;;;;;18.25;16.65;;;23.70;98.00;;;;;;5105053;27;20522;-79
2021/06/29 11:25:50;;;;;;;16.42;14.82;;;23.90;98.00;;;;;;5064953;27;20895;-79
2021/06/29 11:28:34;;;;;;;16.77;15.27;;;24.10;97.80;;;;;;5079912;27;20483;-79
2021/06/29 11:31:22;;;;;;;17.63;16.05;;;24.40;97.40;;;;;;5063972;27;20406;-79
2021/06/29 11:34:06;;;;;;;17.25;15.70;;;24.70;96.60;;;;;;5099055;27;1250259;-78
2021/06/29 11:36:52;;;;;;;17.85;16.15;;;24.90;96.20;;;;;;5081006;27;21010;-78
2021/06/29 11:39:33;;;;;;;15.30;14.00;;;25.10;95.70;;;;;;5054377;28;20467;-80
2021/06/29 11:42:10;;;;;;;12.38;11.15;;;25.30;95.00;;;;;;5086136;27;1278488;-79
2021/06/29 11:44:50;;;;;;;10.30;9.30;;;25.30;95.00;;;;;;5100682;27;20461;-79
2021/06/29 11:47:25;;;;;;;10.88;9.98;;;25.10;95.10;;;;;;5116759;27;1344807;-79
2021/06/29 11:50:14;;;;;;;10.93;9.95;;;25.10;95.50;;;;;;5048613;28;20427;-80
2021/06/29 11:52:49;;;;;;;9.52;8.60;;;25.70;95.70;;;;;;5120650;27;1271019;-79
2021/06/29 11:55:29;;;;;;;8.07;7.47;;;26.60;94.50;;;;;;5089958;28;20730;-77
2021/06/29 11:58:07;;;;;;;8.27;7.47;;;27.50;92.70;;;;;;5067993;28;20426;-79
2021/06/29 12:00:44;;;;;;;7.72;7.05;;;28.00;91.80;;;;;;5112112;27;20579;-78
2021/06/29 12:03:24;;;;;;;9.57;7.95;;;28.40;91.20;;;;;;5067320;28;20398;-77
2021/06/29 12:06:02;;;;;;;8.57;7.70;;;28.70;90.50;;;;;;5061708;28;20872;-79
2021/06/29 12:08:38;;;;;;;7.18;6.57;;;28.70;89.60;;;;;;5104250;27;20735;-79
2021/06/29 12:11:15;;;;;;;8.68;7.00;;;29.10;89.40;;;;;;5084666;28;20578;-79
2021/06/29 12:13:52;;;;;;;7.00;6.40;;;29.40;86.70;;;;;;5089021;27;1308942;-79
2021/06/29 12:16:41;;;;;;;6.72;6.13;;;29.30;85.40;;;;;;5108716;27;20354;-79
2021/06/29 12:19:19;;;;;;;7.65;7.07;;;28.90;85.40;;;;;;5057645;28;20165;-77
2021/06/29 12:21:56;;;;;;;8.18;7.38;;;28.20;85.10;;;;;;5071302;28;20386;-77
2021/06/29 12:24:35;;;;;;;7.45;6.75;;;27.80;86.50;;;;;;5086177;27;20557;-79
2021/06/29 12:27:17;;;;;;;7.43;6.78;;;27.80;86.80;;;;;;5089801;27;1510647;-79
2021/06/29 12:29:54;;;;;;;6.53;5.93;;;27.80;86.70;;;;;;5059283;28;20430;-79
2021/06/29 12:32:29;;;;;;;7.95;7.25;;;27.70;87.20;;;;;;5075876;27;1327044;-77
2021/06/29 12:35:10;;;;;;;7.72;6.28;;;27.70;86.60;;;;;;5108527;27;20981;-77
2021/06/29 12:37:54;;;;;;;7.38;6.78;;;27.40;87.60;;;;;;5067649;28;20437;-77
2021/06/29 12:40:34;;;;;;;7.18;6.47;;;27.70;88.10;;;;;;5104741;27;20473;-77
2021/06/29 12:43:19;;;;;;;6.75;5.97;;;28.50;86.60;;;;;;5101131;27;21445;-77
2021/06/29 12:45:58;;;;;;;8.00;7.22;;;29.70;84.60;;;;;;5068476;28;21167;-77
2021/06/29 12:48:33;;;;;;;6.57;6.07;;;30.20;82.00;;;;;;5090995;27;1584771;-79
2021/06/29 12:51:10;;;;;;;7.80;7.00;;;30.30;79.90;;;;;;5108672;27;21017;-74
2021/06/29 12:53:53;;;;;;;8.63;6.97;;;30.60;79.10;;;;;;5067830;28;20399;-74
2021/06/29 12:56:34;;;;;;;6.88;6.28;;;31.10;78.40;;;;;;5067481;28;20486;-74
2021/06/29 12:59:12;;;;;;;7.18;6.47;;;31.80;75.50;;;;;;5061402;28;20478;-74
2021/06/29 13:02:00;;;;;;;5.25;4.75;;;31.90;73.00;;;;;;5106678;27;20778;-76
2021/06/29 13:04:49;;;;;;;6.25;5.72;;;31.70;72.70;;;;;;5085547;27;20866;-77
2021/06/29 13:07:24;;;;;;;5.93;5.32;;;31.60;73.20;;;;;;5097682;27;1277080;-76
2021/06/29 13:10:08;;;;;;;7.00;6.30;;;31.80;71.70;;;;;;5178547;27;20425;-76
2021/06/29 13:12:47;;;;;;;7.60;7.00;;;31.70;71.00;;;;;;5160976;27;20427;-74
2021/06/29 13:15:30;;;;;;;8.25;6.00;;;31.40;71.80;;;;;;5145925;27;20300;-76
2021/06/29 13:18:12;;;;;;;7.72;6.30;;;31.00;72.60;;;;;;5090581;27;20624;-76
2021/06/29 13:20:52;;;;;;;8.30;7.50;;;30.50;73.10;;;;;;5006584;27;3147148;-74
2021/06/29 13:23:35;;;;;;;9.98;8.98;;;30.00;73.70;;;;;;5143635;27;20400;-76
2021/06/29 13:26:14;;;;;;;7.05;6.15;;;29.90;75.30;;;;;;5064803;28;20498;-76
2021/06/29 13:28:54;;;;;;;6.25;5.65;;;30.30;75.10;;;;;;5101093;27;20470;-77
2021/06/29 13:31:39;;;;;;;6.20;5.60;;;30.80;72.40;;;;;;5140176;27;20302;-76
2021/06/29 13:34:26;;;;;;;4.95;4.55;;;30.60;72.00;;;;;;5062668;28;20414;-77
2021/06/29 13:37:25;;;;;;;4.93;4.43;;;30.00;72.90;;;;;;5100952;27;20516;-78
2021/06/29 13:40:14;;;;;;;6.32;5.50;;;30.10;73.70;;;;;;5108854;27;20489;-79
2021/06/29 13:43:17;;;;;;;6.72;6.15;;;30.20;73.40;;;;;;5109137;27;20388;-80
2021/06/29 13:45:58;;;;;;;5.47;4.80;;;29.80;72.30;;;;;;5109203;27;20913;-76
2021/06/29 13:48:37;;;;;;;5.68;5.10;;;29.40;73.60;;;;;;5065524;28;20850;-78
2021/06/29 13:51:22;;;;;;;5.63;5.10;;;30.00;73.40;;;;;;5109902;27;20457;-78
2021/06/29 13:54:22;;;;;;;5.97;5.40;;;30.20;70.40;;;;;;5139935;27;20121;-78
2021/06/29 13:57:00;;;;;;;5.85;4.30;;;30.00;70.70;;;;;;5072419;28;20436;-79
2021/06/29 13:59:38;;;;;;;5.55;5.05;;;30.00;70.80;;;;;;5115915;27;1310883;-79
2021/06/29 14:02:28;;;;;;;6.15;5.45;;;30.80;69.50;;;;;;5072892;28;20787;-79
2021/06/29 14:05:06;;;;;;;5.50;5.00;;;31.60;67.00;;;;;;5068174;28;20508;-74
2021/06/29 14:07:44;;;;;;;5.53;5.03;;;31.40;66.10;;;;;;5048456;28;20404;-74
2021/06/29 14:10:26;;;;;;;5.80;5.05;;;31.30;66.10;;;;;;5073845;27;1280736;-75